Date,TemperatureHighF,TemperatureAvgF,TemperatureLowF,DewpointHighF,DewpointAvgF,DewpointLowF,HumidityHigh,HumidityAvg,HumidityLow,PressureMaxIn,PressureMinIn,WindSpeedMaxMPH,WindSpeedAvgMPH,GustSpeedMaxMPH,PrecipitationSumIn
2013-1-26,56.8,56.4,55.8,55.2,54.9,54.3,96,95,94,30.08,30.01,8,2,11,0.00
2013-1-27,61.9,53.8,48.7,50.4,47.2,41.9,97,79,61,30.15,30.07,12,5,20,0.00
2013-1-28,55.9,51.0,46.2,40.4,35.9,29.1,67,57,44,30.26,30.17,10,4,14,0.00
2013-1-29,57.9,55.7,53.6,42.6,40.4,37.2,65,57,50,30.33,30.28,10,5,14,0.00
2013-1-30,63.7,60.4,56.3,46.2,44.8,41.7,67,57,50,30.43,30.35,8,4,10,0.00
2013-1-31,73.9,71.4,68.7,45.3,43.5,40.7,42,37,31,30.28,30.19,8,3,10,0.00
2013-2-1,76.3,65.6,58.8,50.4,42.6,33.8,73,46,23,30.25,30.20,11,4,14,0.00
2013-2-2,74.5,70.0,65.8,49.9,44.6,38.4,53,40,28,30.26,30.18,6,4,10,0.00
2013-2-3,60.1,57.2,54.9,48.1,44.8,41.0,73,64,50,30.16,30.13,3,1,4,0.00
2013-2-4,63.3,53.8,50.0,52.4,49.0,46.4,96,85,58,30.14,30.06,6,2,10,0.00
2013-2-5,51.6,49.4,47.1,50.8,48.6,46.3,97,97,97,30.21,30.18,1,0,3,0.00
2013-2-6,52.0,51.3,50.0,46.7,45.9,45.0,88,82,77,30.20,30.16,4,3,8,0.00
2013-2-7,51.8,51.4,51.1,44.8,43.0,41.6,78,73,69,30.13,30.11,8,4,12,0.00
2013-2-8,51.1,44.9,41.0,42.9,39.2,36.5,87,80,68,30.12,30.01,24,5,33,0.06
2013-2-9,55.9,51.5,41.0,43.1,39.5,33.9,85,64,46,30.16,30.03,11,4,16,0.00
2013-2-13,59.5,57.6,52.9,47.3,45.5,41.0,69,64,58,30.33,30.12,10,8,14,0.05
2013-2-14,67.6,59.2,54.3,49.9,46.6,42.2,80,64,44,30.30,30.22,9,3,12,0.00
2013-2-15,76.1,73.5,71.1,33.5,21.6,12.8,24,15,9,30.21,30.18,13,8,17,0.00
2013-2-17,59.9,57.5,55.9,50.2,49.4,48.5,78,74,70,30.09,30.04,11,8,15,0.00
2013-2-19,50.9,48.0,44.4,47.9,43.5,39.6,94,85,70,30.06,29.81,23,7,30,0.23
2013-2-20,52.0,49.1,46.0,40.7,33.7,27.9,81,57,42,29.95,29.81,22,11,31,0.01
2013-2-22,57.7,56.2,55.0,44.9,43.9,42.3,67,63,58,30.29,30.26,10,6,13,0.00
2013-2-23,59.2,57.7,56.7,48.6,45.7,40.7,71,64,59,30.15,30.05,11,8,14,0.00
2013-2-26,61.7,58.6,56.7,46.2,41.3,32.8,66,54,36,30.14,30.10,10,5,14,0.00
2013-3-4,53.8,52.8,52.3,50.3,49.8,49.2,91,89,85,30.20,30.15,7,4,10,0.00
2013-3-5,54.5,54.0,53.6,50.5,49.9,49.4,87,86,85,30.21,30.19,6,4,8,0.00
2013-3-7,56.8,53.6,50.5,52.9,50.7,48.8,94,90,81,30.12,30.09,4,1,6,0.02
2013-3-8,52.7,47.9,45.5,47.4,44.9,42.3,96,90,70,30.00,29.87,28,6,40,0.15
2013-3-15,61.7,53.6,50.0,56.3,50.1,48.2,95,88,63,30.16,30.03,8,2,10,0.00
2013-4-8,59.5,58.5,56.5,53.5,47.0,45.5,84,66,61,30.11,29.79,21,15,29,0.00
2013-4-13,64.9,55.4,54.0,53.6,52.4,50.3,94,90,59,30.12,29.94,10,5,13,0.00
2013-4-18,70.0,67.4,57.9,51.8,20.6,7.6,80,18,9,30.27,29.98,15,10,22,0.00
2013-5-13,90.1,84.3,63.9,60.4,55.8,45.2,78,39,25,30.15,30.01,11,3,15,0.00
2013-5-14,64.8,63.1,61.7,58.4,57.7,57.0,86,83,78,30.07,30.05,12,6,17,0.00
2013-6-3,68.7,64.1,60.8,59.0,57.7,56.4,91,80,71,29.98,29.93,13,9,17,0.00
2013-6-17,62.6,60.4,57.7,59.0,57.8,54.8,94,91,87,30.00,29.98,5,1,8,0.00